M I D A S
Marine Information and Data Acquisition System
Tripno 1057 of the Zeeleeuw from 2006-03-28 06:42:22 to 2006-03-28 11:14:48
Back to CruiseResearch ActivitiesStationsMapUnderway DataData graphs

EquipmentUnitsComment
TimeDGPSUTC
LatitudeDGPSDM.mWGS84
LongitudeDGPSDM.mWGS84
HeadingGyrodeg 
SOGDGPSknotsSpeed over ground
COGDGPSdegCourse over ground
DepthEcho soundermeters200 kHz
Missing or incorrect values are displayed as -999
Navigation data collected by the RV Zeeleeuw from 2006-03-28 06:41:08 to 2006-03-28 11:26:33
                                                                                    Next 1000 lines
Time Latitude Longitude Heading SOG COG Depth
2006-03-28 06:41:18 51°13.6 2°56.088 114.6 1.1 297 6.7
2006-03-28 06:41:23 51°13.601 2°56.085 114.5 1.1 297 6.7
2006-03-28 06:41:28 51°13.602 2°56.082 114.7 1.6 295 6.8
2006-03-28 06:41:33 51°13.603 2°56.078 115 1.8 295 -999
2006-03-28 06:41:39 51°13.604 2°56.072 115 2.1 296 -999
2006-03-28 06:41:43 51°13.605 2°56.068 115 2.2 295 -999
2006-03-28 06:41:48 51°13.606 2°56.063 114.7 2.5 293 -999
2006-03-28 06:41:53 51°13.607 2°56.058 114.2 2.6 293 -999
2006-03-28 06:41:58 51°13.608 2°56.052 113.9 2.6 292 -999
2006-03-28 06:42:03 51°13.609 2°56.047 113.9 2.7 291 -999
2006-03-28 06:42:08 51°13.611 2°56.041 113.9 2.8 291 -999
2006-03-28 06:42:13 51°13.612 2°56.035 113.9 2.8 291 -999
2006-03-28 06:42:18 51°13.613 2°56.029 114.3 2.8 291 -999
2006-03-28 06:42:23 51°13.614 2°56.023 114.5 2.9 291 -999
2006-03-28 06:42:28 51°13.616 2°56.017 114.6 2.9 291 -999
2006-03-28 06:42:33 51°13.617 2°56.01 115 3 291 -999
2006-03-28 06:42:38 51°13.619 2°56.004 115.5 3 292 -999
2006-03-28 06:42:43 51°13.62 2°55.998 116.5 3 291 -999
2006-03-28 06:42:48 51°13.622 2°55.992 117.5 3.1 294 -999
2006-03-28 06:42:53 51°13.624 2°55.986 118.7 3.2 294 -999
2006-03-28 06:42:58 51°13.626 2°55.979 119.7 3.2 296 -999
2006-03-28 06:43:03 51°13.628 2°55.973 120.4 3.3 296 -999
2006-03-28 06:43:08 51°13.63 2°55.966 120.7 3.4 297 -999
2006-03-28 06:43:13 51°13.632 2°55.959 120.7 3.5 295 -999
2006-03-28 06:43:18 51°13.635 2°55.952 120.6 3.5 296 -999
2006-03-28 06:43:23 51°13.637 2°55.945 120.5 3.5 295 -999
2006-03-28 06:43:28 51°13.639 2°55.938 120.6 3.6 296 -999
2006-03-28 06:43:33 51°13.641 2°55.93 121.2 3.6 296 -999
2006-03-28 06:43:38 51°13.644 2°55.923 122 3.7 298 -999
2006-03-28 06:43:43 51°13.646 2°55.916 122.8 3.7 298 -999
2006-03-28 06:43:48 51°13.649 2°55.909 123.5 3.7 299 -999
2006-03-28 06:43:53 51°13.652 2°55.902 124.7 2.9 300 -999
2006-03-28 06:43:58 51°13.655 2°55.895 125.1 3.8 301 -999
2006-03-28 06:44:03 51°13.657 2°55.887 125.9 3.8 302 -999
2006-03-28 06:44:08 51°13.66 2°55.88 126.6 3.8 302 -999
2006-03-28 06:44:13 51°13.663 2°55.873 127.1 3.8 304 -999
2006-03-28 06:44:18 51°13.666 2°55.866 127.4 3.8 304 -999
2006-03-28 06:44:23 51°13.669 2°55.859 127.5 3.8 305 -999
2006-03-28 06:44:28 51°13.672 2°55.853 127.5 3.8 305 -999
2006-03-28 06:44:33 51°13.675 2°55.846 127.4 3.8 306 -999
2006-03-28 06:44:38 51°13.678 2°55.839 127.2 3.8 306 -999
2006-03-28 06:44:43 51°13.682 2°55.832 126.6 3.8 306 -999
2006-03-28 06:44:48 51°13.685 2°55.824 125.8 4 305 -999
2006-03-28 06:44:53 51°13.688 2°55.817 124.3 4.1 304 -999
2006-03-28 06:44:58 51°13.691 2°55.81 123 4 303 -999
2006-03-28 06:45:03 51°13.693 2°55.803 121.4 3.8 302 -999
2006-03-28 06:45:09 51°13.696 2°55.796 119.4 3.5 300 -999
2006-03-28 06:45:14 51°13.698 2°55.79 117.4 3.3 298 -999
2006-03-28 06:45:19 51°13.7 2°55.783 115.7 3.2 297 -999
2006-03-28 06:45:24 51°13.702 2°55.777 113.9 3.1 295 -999
2006-03-28 06:45:28 51°13.703 2°55.772 111.9 2.9 294 -999
2006-03-28 06:45:34 51°13.705 2°55.765 109.9 2.8 292 -999
2006-03-28 06:45:39 51°13.706 2°55.76 107.9 2.6 290 -999
2006-03-28 06:45:44 51°13.707 2°55.755 105.6 2.3 287 -999
2006-03-28 06:45:49 51°13.707 2°55.751 103.4 2 284 -999
2006-03-28 06:45:54 51°13.708 2°55.748 99.7 1.7 283 4.7
2006-03-28 06:45:59 51°13.708 2°55.745 97.2 1.5 282 -999
2006-03-28 06:46:04 51°13.708 2°55.742 94.2 1.2 274 -999
2006-03-28 06:46:08 51°13.709 2°55.741 89.9 0.9 275 -999
2006-03-28 06:46:14 51°13.709 2°55.739 86.1 0.6 268 -999
2006-03-28 06:46:19 51°13.709 2°55.739 81.6 0.3 282 -999
2006-03-28 06:46:24 51°13.709 2°55.739 76.9 0.1 311 -999
2006-03-28 06:46:29 51°13.709 2°55.739 71.8 0.2 38 -999
2006-03-28 06:46:34 51°13.71 2°55.74 66.7 0.4 49 -999
2006-03-28 06:46:39 51°13.71 2°55.741 62.6 0.5 43 -999
2006-03-28 06:46:44 51°13.711 2°55.742 56.4 0.7 45 -999
2006-03-28 06:46:49 51°13.712 2°55.743 52.2 0.8 38 -999
2006-03-28 06:46:54 51°13.713 2°55.744 46.2 1 36 -999
2006-03-28 06:46:59 51°13.714 2°55.745 42.3 0.9 28 -999
2006-03-28 06:47:04 51°13.715 2°55.746 38.5 0.7 26 -999
2006-03-28 06:47:09 51°13.715 2°55.746 35.1 0.4 28 -999
2006-03-28 06:47:14 51°13.715 2°55.746 31.9 0.1 342 -999
2006-03-28 06:47:19 51°13.715 2°55.746 29.7 0.1 204 -999
2006-03-28 06:47:24 51°13.714 2°55.745 27.1 0.6 211 -999
2006-03-28 06:47:29 51°13.713 2°55.744 25.9 1 204 -999
2006-03-28 06:47:34 51°13.711 2°55.742 24.3 1.4 203 -999
2006-03-28 06:47:39 51°13.709 2°55.741 23.3 1.7 199 -999
2006-03-28 06:47:44 51°13.707 2°55.74 21.9 1.6 202 -999
2006-03-28 06:47:48 51°13.705 2°55.739 21.2 0.9 201 -999
2006-03-28 06:47:54 51°13.704 2°55.737 20.3 1.2 203 -999
2006-03-28 06:47:59 51°13.702 2°55.737 19.1 0.9 199 -999
2006-03-28 06:48:04 51°13.702 2°55.736 16.7 0.6 204 -999
2006-03-28 06:48:09 51°13.702 2°55.736 14.9 0.3 191 -999
2006-03-28 06:48:14 51°13.702 2°55.735 12 0.2 315 -999
2006-03-28 06:48:19 51°13.703 2°55.735 8.7 0.4 351 -999
2006-03-28 06:48:24 51°13.704 2°55.735 3.9 0.8 346 -999
2006-03-28 06:48:28 51°13.705 2°55.734 0.4 1 347 -999
2006-03-28 06:48:34 51°13.707 2°55.734 354.7 1.4 343 -999
2006-03-28 06:48:39 51°13.71 2°55.732 350.9 1.7 341 -999
2006-03-28 06:48:44 51°13.713 2°55.73 345.9 2.3 336 -999
2006-03-28 06:48:48 51°13.716 2°55.728 343.6 2.6 335 4.7
2006-03-28 06:48:54 51°13.721 2°55.724 341.2 3.2 333 -999
2006-03-28 06:48:59 51°13.725 2°55.72 338.5 3.9 331 -999
2006-03-28 06:49:04 51°13.731 2°55.714 336.3 4.5 329 4.9
2006-03-28 06:49:09 51°13.737 2°55.709 335.5 5 331 5.1
2006-03-28 06:49:13 51°13.743 2°55.704 335.4 5.4 331 4.6
2006-03-28 06:49:18 51°13.75 2°55.698 335.7 5.8 331 -999
2006-03-28 06:49:23 51°13.758 2°55.691 336 6.3 333 -999
2006-03-28 06:49:29 51°13.768 2°55.683 335.5 6.7 331 -999
2006-03-28 06:49:34 51°13.777 2°55.675 335.2 7.1 331 -999
2006-03-28 06:49:39 51°13.786 2°55.667 334.6 7.4 330 -999
2006-03-28 06:49:44 51°13.795 2°55.658 334.7 7.6 331 -999
2006-03-28 06:49:48 51°13.803 2°55.651 335.2 7.9 331 -999
2006-03-28 06:49:54 51°13.815 2°55.641 336.7 8.1 333 -999
2006-03-28 06:49:59 51°13.825 2°55.633 337.5 8.2 333 -999
2006-03-28 06:50:04 51°13.835 2°55.625 338.2 8.3 333 -999
2006-03-28 06:50:09 51°13.846 2°55.617 339.2 8.4 335 -999
2006-03-28 06:50:14 51°13.857 2°55.609 339.7 8.5 334 -999
2006-03-28 06:50:19 51°13.868 2°55.602 340.3 8.6 336 -999
2006-03-28 06:50:24 51°13.879 2°55.594 340.5 8.6 335 -999
2006-03-28 06:50:28 51°13.887 2°55.588 340.5 8.4 336 -999
2006-03-28 06:50:34 51°13.9 2°55.579 341.2 8.3 336 -999
2006-03-28 06:50:39 51°13.91 2°55.572 341.5 8.1 337 -999
2006-03-28 06:50:44 51°13.92 2°55.565 341.3 8 336 -999
2006-03-28 06:50:49 51°13.93 2°55.558 341.1 7.8 336 -999
2006-03-28 06:50:54 51°13.94 2°55.551 341.2 7.7 336 -999
2006-03-28 06:50:58 51°13.948 2°55.546 341.2 7.6 337 -999
2006-03-28 06:51:04 51°13.959 2°55.538 341.1 7.5 336 -999
2006-03-28 06:51:09 51°13.969 2°55.531 341.1 7.5 337 -999
2006-03-28 06:51:14 51°13.978 2°55.525 341.5 7.4 337 -999
2006-03-28 06:51:19 51°13.988 2°55.519 341.5 7.3 337 -999
2006-03-28 06:51:24 51°13.997 2°55.512 341.5 7.2 337 -999
2006-03-28 06:51:29 51°14.006 2°55.506 341.1 7 336 -999
2006-03-28 06:51:34 51°14.014 2°55.5 341.1 6.9 336 -999
2006-03-28 06:51:39 51°14.023 2°55.494 341.1 6.7 337 -999
2006-03-28 06:51:44 51°14.031 2°55.488 341.2 6.7 336 -999
2006-03-28 06:51:49 51°14.04 2°55.482 341.2 6.6 336 8.2
2006-03-28 06:51:54 51°14.048 2°55.476 341.1 6.5 336 -999
2006-03-28 06:51:59 51°14.056 2°55.471 341.1 6.4 336 -999
2006-03-28 06:52:04 51°14.064 2°55.465 341.1 6.4 336 -999
2006-03-28 06:52:09 51°14.072 2°55.46 340.9 6.3 336 -999
2006-03-28 06:52:14 51°14.079 2°55.454 340.5 6.3 336 -999
2006-03-28 06:52:19 51°14.087 2°55.448 340.4 6.2 335 -999
2006-03-28 06:52:24 51°14.095 2°55.443 340.4 6.1 336 -999
2006-03-28 06:52:28 51°14.101 2°55.438 340 6.1 335 -999
2006-03-28 06:52:34 51°14.11 2°55.431 339.5 6 335 -999
2006-03-28 06:52:39 51°14.117 2°55.425 339 6 334 -999
2006-03-28 06:52:44 51°14.125 2°55.419 338.6 6 334 -999
2006-03-28 06:52:49 51°14.132 2°55.414 338.2 5.9 333 -999
2006-03-28 06:52:54 51°14.139 2°55.407 337.6 5.9 333 -999
2006-03-28 06:52:58 51°14.145 2°55.403 336.9 5.9 332 -999
2006-03-28 06:53:04 51°14.153 2°55.395 336 5.8 331 -999
2006-03-28 06:53:09 51°14.16 2°55.389 334.9 5.8 330 -999
2006-03-28 06:53:14 51°14.167 2°55.382 333.8 5.8 329 -999
2006-03-28 06:53:19 51°14.174 2°55.375 333 5.8 328 -999
2006-03-28 06:53:24 51°14.181 2°55.368 331.9 5.8 327 -999
2006-03-28 06:53:29 51°14.187 2°55.361 330.9 5.7 326 -999
2006-03-28 06:53:34 51°14.194 2°55.354 329.8 5.7 325 -999
2006-03-28 06:53:39 51°14.2 2°55.346 328.7 5.7 324 -999
2006-03-28 06:53:44 51°14.206 2°55.339 327.5 5.7 323 -999
2006-03-28 06:53:49 51°14.212 2°55.331 326.5 5.7 322 -999
2006-03-28 06:53:54 51°14.218 2°55.323 325.3 5.6 322 -999
2006-03-28 06:53:59 51°14.224 2°55.315 324.2 5.6 320 -999
2006-03-28 06:54:04 51°14.23 2°55.307 322.7 5.6 318 -999
2006-03-28 06:54:09 51°14.236 2°55.298 321.3 5.6 317 -999
2006-03-28 06:54:14 51°14.241 2°55.29 320.2 5.6 316 -999
2006-03-28 06:54:19 51°14.247 2°55.281 319.6 5.6 315 -999
2006-03-28 06:54:24 51°14.252 2°55.272 318.9 5.6 315 -999
2006-03-28 06:54:28 51°14.256 2°55.265 318.1 5.6 314 -999
2006-03-28 06:54:34 51°14.263 2°55.254 317.7 5.6 314 -999
2006-03-28 06:54:39 51°14.268 2°55.245 317.3 5.6 314 -999
2006-03-28 06:54:44 51°14.274 2°55.237 317 5.6 314 9.2
2006-03-28 06:54:48 51°14.278 2°55.229 316.8 5.6 313 8.9
2006-03-28 06:54:54 51°14.284 2°55.218 316.8 5.6 313 -999
2006-03-28 06:54:59 51°14.289 2°55.21 316.7 5.6 313 -999
2006-03-28 06:55:04 51°14.295 2°55.2 316.6 5.6 313 -999
2006-03-28 06:55:09 51°14.3 2°55.192 316.6 5.6 313 -999
2006-03-28 06:55:14 51°14.305 2°55.183 316.6 5.6 313 -999
2006-03-28 06:55:19 51°14.311 2°55.173 316.6 5.6 313 -999
2006-03-28 06:55:24 51°14.316 2°55.164 316.5 5.6 313 -999
2006-03-28 06:55:29 51°14.321 2°55.155 316.1 5.6 312 -999
2006-03-28 06:55:34 51°14.326 2°55.146 315.8 5.5 313 -999
2006-03-28 06:55:39 51°14.331 2°55.137 315.6 5.5 312 -999
2006-03-28 06:55:44 51°14.337 2°55.128 315.4 5.5 312 -999
2006-03-28 06:55:49 51°14.342 2°55.119 315.1 5.5 311 -999
2006-03-28 06:55:54 51°14.347 2°55.11 315 5.6 312 -999
2006-03-28 06:55:58 51°14.351 2°55.102 315 5.8 311 -999
2006-03-28 06:56:04 51°14.358 2°55.09 315 6 311 -999
2006-03-28 06:56:08 51°14.362 2°55.081 314.8 6.4 310 9
2006-03-28 06:56:13 51°14.369 2°55.069 313.7 6.8 311 8.9
2006-03-28 06:56:18 51°14.375 2°55.056 312.1 7.4 306 8.8
2006-03-28 06:56:23 51°14.381 2°55.041 310.4 7.8 305 9.1
2006-03-28 06:56:28 51°14.386 2°55.025 307.4 8.2 299 8.8
2006-03-28 06:56:33 51°14.392 2°55.008 304.4 8.4 298 8.9
2006-03-28 06:56:38 51°14.396 2°54.99 301.7 8.8 293 9
2006-03-28 06:56:43 51°14.4 2°54.971 298.6 9 291 8.9
2006-03-28 06:56:48 51°14.404 2°54.951 295.5 9.3 287 8.9
2006-03-28 06:56:54 51°14.408 2°54.926 292.8 9.5 284 9
2006-03-28 06:56:58 51°14.41 2°54.909 290.8 9.7 282 8.9
2006-03-28 06:57:03 51°14.412 2°54.888 287.8 9.8 280 8.9
2006-03-28 06:57:08 51°14.413 2°54.865 284.4 10 276 8.9
2006-03-28 06:57:13 51°14.413 2°54.843 280.6 10.1 273 8.7
2006-03-28 06:57:18 51°14.414 2°54.82 278.3 10.3 272 8.9
2006-03-28 06:57:23 51°14.414 2°54.797 277.1 10.6 271 8.9
2006-03-28 06:57:28 51°14.414 2°54.773 276.9 10.8 271 8.9
2006-03-28 06:57:33 51°14.414 2°54.749 277.5 11 271 8.5
2006-03-28 06:57:38 51°14.414 2°54.724 277 11.1 270 9
2006-03-28 06:57:43 51°14.414 2°54.699 275.8 11.2 270 8.9
2006-03-28 06:57:48 51°14.413 2°54.674 274.3 11.4 268 8.8
2006-03-28 06:57:53 51°14.413 2°54.649 273.4 11.5 267 8.8
2006-03-28 06:57:58 51°14.412 2°54.623 273.3 11.5 268 8.7
2006-03-28 06:58:04 51°14.411 2°54.592 273.1 11.6 267 9
2006-03-28 06:58:08 51°14.411 2°54.571 272.8 11.7 268 9.1
2006-03-28 06:58:13 51°14.41 2°54.545 273.3 11.8 267 8.9
2006-03-28 06:58:18 51°14.409 2°54.519 273.5 12 268 9
2006-03-28 06:58:23 51°14.408 2°54.492 272.4 12.1 266 8.9
2006-03-28 06:58:28 51°14.406 2°54.465 271.4 12.2 265 8.8
2006-03-28 06:58:33 51°14.404 2°54.438 269.9 12.2 262 8.5
2006-03-28 06:58:38 51°14.4 2°54.412 266.4 12.2 258 8.3
2006-03-28 06:58:43 51°14.395 2°54.386 262.2 12.2 255 8.3
2006-03-28 06:58:48 51°14.389 2°54.361 257.8 12.3 250 8.2
2006-03-28 06:58:52 51°14.383 2°54.341 253.3 12.5 246 8.1
2006-03-28 06:58:58 51°14.373 2°54.311 249.7 12.6 243 8.1
2006-03-28 06:59:03 51°14.365 2°54.286 247.5 12.7 242 8.1
2006-03-28 06:59:08 51°14.356 2°54.261 245.9 12.9 241 8.1
2006-03-28 06:59:13 51°14.347 2°54.237 244.6 13 240 8
2006-03-28 06:59:18 51°14.338 2°54.212 244.2 13.1 239 8
2006-03-28 06:59:23 51°14.328 2°54.187 243.1 13.2 239 8
2006-03-28 06:59:28 51°14.318 2°54.162 242.1 13.2 237 8
2006-03-28 06:59:33 51°14.308 2°54.139 241.1 13.3 236 8
2006-03-28 06:59:38 51°14.298 2°54.113 240.6 13.2 236 7.9
2006-03-28 06:59:43 51°14.288 2°54.089 240.2 13.3 237 7.7
2006-03-28 06:59:48 51°14.278 2°54.063 240.8 13.3 238 7.9
2006-03-28 06:59:53 51°14.269 2°54.039 242.2 13.3 239 7.8
2006-03-28 06:59:58 51°14.259 2°54.013 242.9 13.4 240 7.8
2006-03-28 07:00:03 51°14.25 2°53.988 243.9 13.4 240 7.8
2006-03-28 07:00:08 51°14.241 2°53.961 244.6 13.4 241 7.9
2006-03-28 07:00:13 51°14.233 2°53.935 245.4 13.4 241 7.9
2006-03-28 07:00:18 51°14.224 2°53.909 245.9 13.4 242 7.9
2006-03-28 07:00:24 51°14.214 2°53.878 246.1 13.4 242 7.9
2006-03-28 07:00:28 51°14.207 2°53.856 246.5 13.5 242 7.9
2006-03-28 07:00:33 51°14.198 2°53.831 246.6 13.5 242 7.8
2006-03-28 07:00:38 51°14.189 2°53.805 246.3 13.4 242 7.9
2006-03-28 07:00:43 51°14.18 2°53.778 246.1 13.5 241 7.9
2006-03-28 07:00:48 51°14.171 2°53.752 245.9 13.4 241 7.8
2006-03-28 07:00:53 51°14.161 2°53.726 245.2 13.5 241 7.9
2006-03-28 07:00:58 51°14.152 2°53.7 245.2 13.5 241 7.9
2006-03-28 07:01:03 51°14.143 2°53.674 245.2 13.5 241 8
2006-03-28 07:01:08 51°14.133 2°53.648 244.7 13.6 239 8
2006-03-28 07:01:14 51°14.122 2°53.617 243.8 13.6 239 8
2006-03-28 07:01:18 51°14.114 2°53.597 243.4 13.6 239 8
2006-03-28 07:01:23 51°14.104 2°53.571 243 13.5 239 8
2006-03-28 07:01:28 51°14.094 2°53.546 242.5 13.6 238 8
2006-03-28 07:01:33 51°14.084 2°53.52 242.5 13.6 239 7.9
2006-03-28 07:01:38 51°14.074 2°53.494 242.9 13.6 239 8
2006-03-28 07:01:43 51°14.065 2°53.468 243.1 13.7 239 8.1
2006-03-28 07:01:48 51°14.055 2°53.442 243.4 13.7 239 8.1
2006-03-28 07:01:53 51°14.046 2°53.416 243.8 13.7 240 8.2
2006-03-28 07:01:58 51°14.036 2°53.39 244.5 13.7 240 8.2
2006-03-28 07:02:03 51°14.027 2°53.363 244.5 13.8 241 8.3
2006-03-28 07:02:08 51°14.017 2°53.337 245.3 13.8 241 8.3
2006-03-28 07:02:13 51°14.008 2°53.31 245.9 13.7 241 8.3
2006-03-28 07:02:18 51°13.999 2°53.284 246 13.7 241 8.3
2006-03-28 07:02:23 51°13.989 2°53.257 245.9 13.8 241 8.3
2006-03-28 07:02:28 51°13.98 2°53.231 245.6 13.9 240 8.4
2006-03-28 07:02:33 51°13.971 2°53.205 245.2 13.9 240 8.3
2006-03-28 07:02:38 51°13.96 2°53.178 244 13.8 238 8.3
2006-03-28 07:02:43 51°13.95 2°53.152 243.1 13.9 238 8.4
2006-03-28 07:02:48 51°13.94 2°53.127 242.4 13.9 237 8.4
2006-03-28 07:02:53 51°13.929 2°53.101 241.7 13.9 238 8.4
2006-03-28 07:02:58 51°13.919 2°53.075 241.9 13.9 238 8.5
2006-03-28 07:03:03 51°13.909 2°53.048 242.4 13.9 238 8.4
2006-03-28 07:03:08 51°13.899 2°53.022 243.4 13.9 239 8.5
2006-03-28 07:03:13 51°13.889 2°52.995 243.9 13.9 239 8.5
2006-03-28 07:03:18 51°13.88 2°52.969 244.3 13.9 240 8.5
2006-03-28 07:03:23 51°13.87 2°52.943 244.5 13.9 239 8.6
2006-03-28 07:03:28 51°13.86 2°52.916 244.5 13.8 240 8.6
2006-03-28 07:03:33 51°13.85 2°52.89 244.1 13.9 239 8.7
2006-03-28 07:03:38 51°13.84 2°52.864 243.8 13.9 239 8.6
2006-03-28 07:03:43 51°13.83 2°52.837 243.2 13.9 239 8.6
2006-03-28 07:03:48 51°13.819 2°52.811 242.9 13.9 238 8.6
2006-03-28 07:03:53 51°13.809 2°52.785 243.1 14 239 8.6
2006-03-28 07:03:58 51°13.799 2°52.758 243.5 13.9 239 8.6
2006-03-28 07:04:03 51°13.79 2°52.732 243.9 13.9 240 8.7
2006-03-28 07:04:08 51°13.78 2°52.705 244.1 13.9 239 8.6
2006-03-28 07:04:13 51°13.77 2°52.679 244.3 13.9 240 8.6
2006-03-28 07:04:18 51°13.76 2°52.652 244.6 13.9 240 8.6
2006-03-28 07:04:23 51°13.751 2°52.625 244.3 14 240 8.7
2006-03-28 07:04:28 51°13.741 2°52.599 244.2 14 239 8.7
2006-03-28 07:04:33 51°13.73 2°52.572 243.8 13.9 239 8.7
2006-03-28 07:04:38 51°13.72 2°52.546 243.2 14 238 8.7
2006-03-28 07:04:43 51°13.71 2°52.52 242 14 237 8.7
2006-03-28 07:04:48 51°13.699 2°52.495 241.4 14 236 8.6
2006-03-28 07:04:52 51°13.69 2°52.474 240.8 13.9 237 8.6
2006-03-28 07:04:58 51°13.678 2°52.442 241.6 14 238 8.7
2006-03-28 07:05:03 51°13.668 2°52.417 242 13.9 238 8.6
2006-03-28 07:05:08 51°13.658 2°52.39 242.4 13.9 239 8.7
2006-03-28 07:05:13 51°13.648 2°52.364 243.4 13.9 240 8.7
2006-03-28 07:05:18 51°13.638 2°52.337 244.2 14 240 8.8
2006-03-28 07:05:23 51°13.629 2°52.31 244.6 13.9 239 8.9
2006-03-28 07:05:28 51°13.619 2°52.284 244.5 14 240 9.1
2006-03-28 07:05:33 51°13.609 2°52.257 244.5 14 239 9
2006-03-28 07:05:38 51°13.6 2°52.231 244.5 13.9 240 8.8
2006-03-28 07:05:43 51°13.59 2°52.204 244.5 13.9 239 8.9
2006-03-28 07:05:48 51°13.58 2°52.178 244.3 13.9 240 8.9
2006-03-28 07:05:53 51°13.57 2°52.151 244.3 14 239 9
2006-03-28 07:05:58 51°13.56 2°52.125 244 13.9 239 8.9
2006-03-28 07:06:03 51°13.55 2°52.098 243.8 14 239 8.9
2006-03-28 07:06:08 51°13.54 2°52.071 243.8 14 239 9
2006-03-28 07:06:13 51°13.531 2°52.045 244 14 239 9
2006-03-28 07:06:18 51°13.522 2°52.018 243.8 14 240 9
2006-03-28 07:06:23 51°13.512 2°51.991 244.2 14 240 8.9
2006-03-28 07:06:28 51°13.502 2°51.964 244.5 14 240 9.1
2006-03-28 07:06:33 51°13.492 2°51.937 244.7 14.1 240 9
2006-03-28 07:06:38 51°13.482 2°51.911 245.1 13.9 240 9
2006-03-28 07:06:43 51°13.473 2°51.883 244.9 14 240 9.1
2006-03-28 07:06:48 51°13.463 2°51.857 245.1 14 240 9
2006-03-28 07:06:53 51°13.453 2°51.83 244.8 14 240 9.1
2006-03-28 07:06:58 51°13.443 2°51.803 244.5 14 240 9.2
2006-03-28 07:07:03 51°13.433 2°51.777 244.1 13.9 239 9.1
2006-03-28 07:07:08 51°13.423 2°51.751 243.5 14 239 9.1
2006-03-28 07:07:13 51°13.413 2°51.724 243.1 14 238 9.1
2006-03-28 07:07:18 51°13.402 2°51.698 243 14.1 237 9.1
2006-03-28 07:07:23 51°13.392 2°51.671 242.7 13.9 239 9.2
2006-03-28 07:07:28 51°13.382 2°51.645 243.1 13.9 238 9.1
2006-03-28 07:07:33 51°13.372 2°51.619 243.1 14 239 9.1
2006-03-28 07:07:38 51°13.362 2°51.593 243.1 13.9 239 9.1
2006-03-28 07:07:43 51°13.352 2°51.565 243.4 13.9 239 9.2
2006-03-28 07:07:48 51°13.342 2°51.54 244.1 13.9 239 9.1
2006-03-28 07:07:53 51°13.332 2°51.513 244.2 13.9 240 9.1
2006-03-28 07:07:58 51°13.323 2°51.486 244.2 14 239 9.1
2006-03-28 07:08:03 51°13.313 2°51.459 244.3 13.9 240 9.1
2006-03-28 07:08:08 51°13.304 2°51.433 244.6 13.9 240 9.2
2006-03-28 07:08:13 51°13.294 2°51.406 244.6 14 240 9.1
2006-03-28 07:08:18 51°13.284 2°51.379 244.8 13.9 241 9.1
2006-03-28 07:08:23 51°13.275 2°51.353 244.9 13.9 240 9.1
2006-03-28 07:08:28 51°13.265 2°51.326 244.5 14 240 9.1
2006-03-28 07:08:33 51°13.256 2°51.299 244.4 14 240 9.2
2006-03-28 07:08:38 51°13.246 2°51.273 244.4 14 240 9.1
2006-03-28 07:08:44 51°13.234 2°51.241 244.3 14 240 9.2
2006-03-28 07:08:48 51°13.226 2°51.219 243.9 14 239 9.2
2006-03-28 07:08:53 51°13.217 2°51.193 243.8 14 240 9.3
2006-03-28 07:08:58 51°13.207 2°51.166 243.9 14 240 9.3
2006-03-28 07:09:04 51°13.195 2°51.134 244 14 240 9.2
2006-03-28 07:09:08 51°13.187 2°51.112 244.2 14.1 240 9.3
2006-03-28 07:09:14 51°13.176 2°51.081 244.3 14 240 9.3
2006-03-28 07:09:18 51°13.168 2°51.06 244 14 240 9.3
2006-03-28 07:09:24 51°13.157 2°51.027 243.8 14 240 9.2
2006-03-28 07:09:28 51°13.149 2°51.005 244.1 14 241 9.4
2006-03-28 07:09:34 51°13.137 2°50.973 244.5 14 240 9.3
2006-03-28 07:09:38 51°13.13 2°50.952 244.4 14 241 9.4
2006-03-28 07:09:44 51°13.118 2°50.919 244.4 14 240 9.4
2006-03-28 07:09:48 51°13.111 2°50.898 244.7 14.1 241 9.4
2006-03-28 07:09:54 51°13.099 2°50.865 244.8 14.1 241 9.4
2006-03-28 07:09:58 51°13.092 2°50.844 244.7 14 241 9.4
2006-03-28 07:10:04 51°13.08 2°50.811 245 13.9 241 9.3
2006-03-28 07:10:08 51°13.073 2°50.79 245 13.9 240 9.4
2006-03-28 07:10:14 51°13.061 2°50.757 245 14 240 9.3
2006-03-28 07:10:19 51°13.051 2°50.731 244.5 14 240 9.3
2006-03-28 07:10:24 51°13.041 2°50.704 243.9 14 240 9.4
2006-03-28 07:10:28 51°13.033 2°50.683 243.5 14 239 9.3
2006-03-28 07:10:34 51°13.022 2°50.651 243.1 14 239 9.4
2006-03-28 07:10:38 51°13.013 2°50.63 243 14 239 9.4
2006-03-28 07:10:44 51°13.002 2°50.598 243.2 14 239 9.5
2006-03-28 07:10:48 51°12.994 2°50.576 243.3 14 240 9.4
2006-03-28 07:10:54 51°12.982 2°50.544 243.8 14 240 9.5
2006-03-28 07:10:59 51°12.973 2°50.517 244.5 14 240 9.5
2006-03-28 07:11:04 51°12.963 2°50.49 244.5 14 241 9.5
2006-03-28 07:11:08 51°12.955 2°50.469 244.5 14 240 9.5
2006-03-28 07:11:14 51°12.944 2°50.436 244.4 14 240 9.5
2006-03-28 07:11:19 51°12.934 2°50.409 244.1 14 240 9.5
2006-03-28 07:11:24 51°12.924 2°50.383 244 14 240 9.6
2006-03-28 07:11:28 51°12.916 2°50.362 243.9 14 240 9.5
2006-03-28 07:11:33 51°12.906 2°50.334 244 14 240 9.4
2006-03-28 07:11:38 51°12.897 2°50.307 244.2 14 241 9.4
2006-03-28 07:11:44 51°12.885 2°50.275 244.7 14 241 9.4
2006-03-28 07:11:49 51°12.876 2°50.248 244.8 14 241 9.5
2006-03-28 07:11:54 51°12.866 2°50.221 244.8 14 241 9.6
2006-03-28 07:11:58 51°12.859 2°50.199 245.1 14 241 9.5
2006-03-28 07:12:04 51°12.847 2°50.167 244.6 14 241 9.6
2006-03-28 07:12:08 51°12.84 2°50.146 244.5 14 240 9.6
2006-03-28 07:12:14 51°12.828 2°50.114 244.1 14 239 9.5
2006-03-28 07:12:18 51°12.82 2°50.093 243.5 14 239 9.6
2006-03-28 07:12:23 51°12.81 2°50.066 243.4 13.9 240 9.7
2006-03-28 07:12:29 51°12.799 2°50.034 243.6 13.9 240 9.6
2006-03-28 07:12:34 51°12.789 2°50.007 243.9 13.8 240 9.6
2006-03-28 07:12:39 51°12.78 2°49.981 243.8 13.9 240 9.6
2006-03-28 07:12:44 51°12.77 2°49.954 243.8 13.8 240 9.6
2006-03-28 07:12:48 51°12.762 2°49.933 243.4 13.8 240 9.6
2006-03-28 07:12:54 51°12.751 2°49.902 243.3 13.8 239 9.6
2006-03-28 07:12:58 51°12.743 2°49.881 243.4 13.9 239 9.7
2006-03-28 07:13:04 51°12.732 2°49.849 243.4 13.9 240 9.6
2006-03-28 07:13:08 51°12.724 2°49.828 243.2 13.8 240 9.7
2006-03-28 07:13:14 51°12.712 2°49.796 243.1 13.9 240 9.6
2006-03-28 07:13:19 51°12.703 2°49.77 243.5 13.9 240 9.7
2006-03-28 07:13:24 51°12.693 2°49.743 243.8 13.9 240 9.7
2006-03-28 07:13:28 51°12.685 2°49.722 243.8 13.9 240 9.7
2006-03-28 07:13:34 51°12.674 2°49.69 244 13.9 240 9.7
2006-03-28 07:13:39 51°12.665 2°49.664 243.9 13.9 240 9.7
2006-03-28 07:13:44 51°12.655 2°49.637 243.9 13.9 240 9.7
2006-03-28 07:13:48 51°12.647 2°49.615 244 14 240 9.7
2006-03-28 07:13:54 51°12.636 2°49.583 243.8 13.9 241 9.7
2006-03-28 07:13:58 51°12.628 2°49.562 244.3 13.9 240 9.6
2006-03-28 07:14:04 51°12.617 2°49.53 244.1 13.9 240 9.7
2006-03-28 07:14:08 51°12.609 2°49.508 244.3 13.9 240 9.7
2006-03-28 07:14:14 51°12.598 2°49.476 244 14 241 9.7
2006-03-28 07:14:18 51°12.59 2°49.454 244.3 13.9 241 9.7
2006-03-28 07:14:24 51°12.579 2°49.422 244.6 13.9 241 9.7
2006-03-28 07:14:28 51°12.571 2°49.401 244.9 14 241 9.8
2006-03-28 07:14:34 51°12.56 2°49.368 244.9 13.9 241 9.8
2006-03-28 07:14:38 51°12.552 2°49.347 244.5 14 241 9.8
2006-03-28 07:14:44 51°12.541 2°49.315 244.3 13.9 240 9.8
2006-03-28 07:14:48 51°12.533 2°49.293 244 14 241 9.7
2006-03-28 07:14:54 51°12.522 2°49.262 243.8 13.9 240 9.8
2006-03-28 07:14:58 51°12.514 2°49.24 243.9 13.9 241 9.8
2006-03-28 07:15:04 51°12.502 2°49.208 244 13.9 240 9.7
2006-03-28 07:15:08 51°12.495 2°49.187 244.4 13.9 241 9.8
2006-03-28 07:15:14 51°12.484 2°49.155 244.5 13.8 240 9.7
2006-03-28 07:15:19 51°12.474 2°49.129 244.3 13.9 241 9.8
2006-03-28 07:15:24 51°12.465 2°49.102 244.2 13.8 240 9.8
2006-03-28 07:15:28 51°12.457 2°49.081 244.2 13.8 240 9.7
2006-03-28 07:15:34 51°12.445 2°49.049 243.7 13.8 239 9.8
2006-03-28 07:15:39 51°12.435 2°49.023 243.8 13.8 240 9.8
2006-03-28 07:15:44 51°12.426 2°48.997 244 13.8 240 9.8
2006-03-28 07:15:48 51°12.419 2°48.975 244.2 13.8 241 9.7
2006-03-28 07:15:54 51°12.407 2°48.943 244.3 13.8 240 9.8
2006-03-28 07:15:59 51°12.398 2°48.917 244.5 13.8 241 9.8
2006-03-28 07:16:04 51°12.388 2°48.889 244.7 13.8 241 9.8
2006-03-28 07:16:08 51°12.381 2°48.868 244.8 13.8 241 9.8
2006-03-28 07:16:14 51°12.37 2°48.836 245 13.9 241 9.8
2006-03-28 07:16:18 51°12.362 2°48.815 245.1 13.9 241 9.8
2006-03-28 07:16:24 51°12.351 2°48.783 245 13.9 241 9.9
2006-03-28 07:16:28 51°12.343 2°48.762 245 13.8 241 9.8
2006-03-28 07:16:34 51°12.332 2°48.73 244.8 13.8 241 9.9
2006-03-28 07:16:38 51°12.324 2°48.708 244.8 13.8 241 9.8
2006-03-28 07:16:43 51°12.315 2°48.682 244.5 13.8 240 9.9
2006-03-28 07:16:48 51°12.305 2°48.654 244.2 13.8 240 9.9
2006-03-28 07:16:54 51°12.294 2°48.623 244.2 13.8 240 9.9
2006-03-28 07:16:59 51°12.284 2°48.597 244.1 13.8 240 9.9
2006-03-28 07:17:03 51°12.276 2°48.576 243.8 13.8 240 9.9
2006-03-28 07:17:08 51°12.267 2°48.55 243.3 13.8 239 9.9
2006-03-28 07:17:14 51°12.255 2°48.518 242.9 13.8 239 9.9
2006-03-28 07:17:19 51°12.245 2°48.492 243 13.8 240 9.9
2006-03-28 07:17:24 51°12.236 2°48.465 243.4 13.8 241 9.9
2006-03-28 07:17:28 51°12.228 2°48.444 243.9 13.8 240 9.8
2006-03-28 07:17:34 51°12.217 2°48.411 244.6 13.8 241 9.9
2006-03-28 07:17:39 51°12.208 2°48.385 244.7 13.9 241 9.9
2006-03-28 07:17:44 51°12.198 2°48.359 244.9 13.9 241 9.9
2006-03-28 07:17:48 51°12.191 2°48.337 244.9 13.8 241 9.9
2006-03-28 07:17:54 51°12.179 2°48.304 244.9 13.8 241 9.8
2006-03-28 07:17:59 51°12.17 2°48.278 245.1 13.9 241 9.9
2006-03-28 07:18:04 51°12.161 2°48.251 245.2 13.8 241 9.9
2006-03-28 07:18:08 51°12.153 2°48.229 244.6 13.9 241 9.9
2006-03-28 07:18:14 51°12.142 2°48.197 244.6 13.9 241 9.9
2006-03-28 07:18:19 51°12.133 2°48.171 244.7 13.9 241 9.9
2006-03-28 07:18:24 51°12.123 2°48.144 244.5 13.9 241 9.9
2006-03-28 07:18:28 51°12.115 2°48.123 244.4 13.8 240 9.9
2006-03-28 07:18:34 51°12.104 2°48.091 243.5 13.9 240 10
2006-03-28 07:18:38 51°12.095 2°48.07 243.1 13.9 239 9.9
2006-03-28 07:18:44 51°12.084 2°48.039 242.5 13.8 239 9.9
2006-03-28 07:18:48 51°12.076 2°48.018 242.6 13.8 240 9.8
2006-03-28 07:18:54 51°12.064 2°47.985 243.2 13.8 240 9.8
2006-03-28 07:18:58 51°12.057 2°47.964 243.7 13.9 241 9.9
2006-03-28 07:19:03 51°12.047 2°47.938 244.1 13.9 241 9.9
2006-03-28 07:19:08 51°12.038 2°47.911 244.5 13.9 241 10
2006-03-28 07:19:14 51°12.026 2°47.879 244.9 13.8 241 9.8
2006-03-28 07:19:19 51°12.017 2°47.853 244.9 13.8 241 9.8
2006-03-28 07:19:24 51°12.008 2°47.826 244.6 13.9 241 9.9
2006-03-28 07:19:28 51°12 2°47.804 244.5 13.9 240 9.8
2006-03-28 07:19:34 51°11.988 2°47.773 244.1 13.8 241 9.9
2006-03-28 07:19:39 51°11.979 2°47.746 243.8 13.9 240 9.8
2006-03-28 07:19:44 51°11.969 2°47.72 243.9 13.9 240 9.8
2006-03-28 07:19:48 51°11.961 2°47.698 244.2 14 240 9.8
2006-03-28 07:19:54 51°11.95 2°47.666 244.2 13.9 241 9.8
2006-03-28 07:19:58 51°11.943 2°47.645 244.6 13.9 241 9.8
2006-03-28 07:20:04 51°11.931 2°47.612 244.6 13.9 241 9.7
2006-03-28 07:20:08 51°11.924 2°47.591 244.8 13.9 240 9.7
2006-03-28 07:20:13 51°11.914 2°47.564 244.9 13.9 241 9.8
2006-03-28 07:20:19 51°11.903 2°47.532 244.9 13.9 241 9.7
2006-03-28 07:20:24 51°11.894 2°47.505 244.8 13.9 241 9.7
2006-03-28 07:20:28 51°11.886 2°47.484 245.1 13.8 242 9.7
2006-03-28 07:20:34 51°11.875 2°47.451 245.2 13.9 241 9.7
2006-03-28 07:20:39 51°11.866 2°47.425 245.3 13.9 242 9.8
2006-03-28 07:20:44 51°11.857 2°47.398 245.5 13.8 242 9.6
2006-03-28 07:20:48 51°11.85 2°47.376 245.3 13.8 241 9.6
2006-03-28 07:20:54 51°11.838 2°47.345 245 13.9 241 9.6
2006-03-28 07:20:59 51°11.829 2°47.318 244.5 13.8 240 9.6
2006-03-28 07:21:04 51°11.819 2°47.292 244 13.8 240 9.6
2006-03-28 07:21:08 51°11.812 2°47.27 243.5 13.9 241 9.6
2006-03-28 07:21:14 51°11.8 2°47.238 243.6 13.9 240 9.6
2006-03-28 07:21:18 51°11.793 2°47.217 243.6 13.9 241 9.5
2006-03-28 07:21:23 51°11.783 2°47.191 243.9 13.8 241 9.6
2006-03-28 07:21:28 51°11.774 2°47.164 244.5 13.8 241 9.6
2006-03-28 07:21:34 51°11.763 2°47.132 244.6 13.8 241 9.4
2006-03-28 07:21:39 51°11.754 2°47.105 244.5 13.9 241 9.5
2006-03-28 07:21:44 51°11.745 2°47.078 244.8 13.9 241 9.4
2006-03-28 07:21:48 51°11.737 2°47.057 244.9 13.8 242 9.4
2006-03-28 07:21:54 51°11.726 2°47.024 245.2 13.8 241 9.4
2006-03-28 07:21:58 51°11.719 2°47.003 245.2 13.8 242 9.4
2006-03-28 07:22:04 51°11.708 2°46.971 245.3 13.8 241 9.5
2006-03-28 07:22:08 51°11.701 2°46.949 245.1 13.8 241 9.3
2006-03-28 07:22:14 51°11.689 2°46.918 244.5 13.9 241 9.4
2006-03-28 07:22:19 51°11.68 2°46.891 244.3 13.8 242 9.3
2006-03-28 07:22:24 51°11.671 2°46.864 244.6 13.8 241 9.3
2006-03-28 07:22:28 51°11.664 2°46.843 244.5 13.8 241 9.3
2006-03-28 07:22:34 51°11.653 2°46.81 245.1 13.8 242 9.3
2006-03-28 07:22:39 51°11.644 2°46.784 245.7 13.7 242 9.3
2006-03-28 07:22:44 51°11.635 2°46.757 245.7 13.8 242 9.3
2006-03-28 07:22:48 51°11.628 2°46.735 245.6 13.8 242 9.2
2006-03-28 07:22:54 51°11.617 2°46.703 245.3 13.8 242 9.3
2006-03-28 07:22:58 51°11.61 2°46.682 245.3 13.8 241 9.2
2006-03-28 07:23:04 51°11.599 2°46.65 244.9 13.8 241 9.2
2006-03-28 07:23:08 51°11.591 2°46.629 244.8 13.8 240 9.3
2006-03-28 07:23:14 51°11.58 2°46.597 244.3 13.8 240 9.2
2006-03-28 07:23:18 51°11.572 2°46.576 243.5 13.7 240 9.2
2006-03-28 07:23:24 51°11.561 2°46.544 243.3 13.8 240 9.2
2006-03-28 07:23:28 51°11.553 2°46.523 243.7 13.9 240 9.2
2006-03-28 07:23:34 51°11.542 2°46.491 243.8 13.9 241 9.2
2006-03-28 07:23:39 51°11.533 2°46.464 244.9 13.9 242 9.1
2006-03-28 07:23:43 51°11.526 2°46.443 245 13.8 242 9.1
2006-03-28 07:23:48 51°11.517 2°46.416 245.3 13.7 242 9.2
2006-03-28 07:23:54 51°11.506 2°46.383 245.8 13.8 243 9.1
2006-03-28 07:23:58 51°11.499 2°46.362 246 13.7 242 9.2
2006-03-28 07:24:04 51°11.489 2°46.33 246 13.8 242 9.1
2006-03-28 07:24:08 51°11.481 2°46.308 245.7 13.7 242 9.1
2006-03-28 07:24:14 51°11.471 2°46.276 245.5 13.8 242 9.2
2006-03-28 07:24:19 51°11.462 2°46.25 245.5 13.7 242 9.1
2006-03-28 07:24:24 51°11.453 2°46.223 245.6 13.7 242 9.1
2006-03-28 07:24:28 51°11.446 2°46.202 245.7 13.6 242 9.1
2006-03-28 07:24:34 51°11.435 2°46.17 245.2 13.6 241 9.1
2006-03-28 07:24:39 51°11.426 2°46.144 245 13.6 241 9.1
2006-03-28 07:24:44 51°11.417 2°46.117 244.6 13.6 241 9.1
2006-03-28 07:24:48 51°11.409 2°46.097 244.1 13.6 239 9.1
2006-03-28 07:24:54 51°11.397 2°46.066 243.3 13.6 239 9.1
2006-03-28 07:24:59 51°11.387 2°46.04 242.5 13.6 238 8.9
2006-03-28 07:25:04 51°11.377 2°46.015 241.8 13.6 238 8.9
2006-03-28 07:25:08 51°11.37 2°45.994 241.4 13.6 239 8.9
2006-03-28 07:25:14 51°11.358 2°45.963 242.3 13.6 241 8.8
2006-03-28 07:25:18 51°11.352 2°45.941 243.8 13.6 242 8.8
2006-03-28 07:25:24 51°11.342 2°45.909 245.6 13.6 244 8.8
2006-03-28 07:25:28 51°11.335 2°45.887 247.9 13.6 244 8.8
2006-03-28 07:25:34 51°11.327 2°45.854 248.7 13.6 247 8.8
2006-03-28 07:25:39 51°11.319 2°45.826 250 13.6 247 8.8
2006-03-28 07:25:44 51°11.312 2°45.798 250.7 13.7 247 8.9
2006-03-28 07:25:49 51°11.304 2°45.77 251.1 13.7 247 8.8
2006-03-28 07:25:54 51°11.297 2°45.742 251.6 13.7 248 8.9
2006-03-28 07:25:58 51°11.291 2°45.72 251.8 13.6 248 8.9
2006-03-28 07:26:03 51°11.284 2°45.693 251.3 13.6 247 8.9
2006-03-28 07:26:08 51°11.276 2°45.665 250.8 13.6 247 8.9
2006-03-28 07:26:14 51°11.267 2°45.631 250.1 13.7 246 8.9
2006-03-28 07:26:19 51°11.259 2°45.604 249.9 13.7 246 8.9
2006-03-28 07:26:24 51°11.251 2°45.577 249.7 13.7 246 8.9
2006-03-28 07:26:28 51°11.244 2°45.554 249.3 13.6 245 8.8
2006-03-28 07:26:34 51°11.235 2°45.522 248.7 13.7 244 8.9
2006-03-28 07:26:38 51°11.228 2°45.5 248.2 13.7 245 8.8
2006-03-28 07:26:44 51°11.219 2°45.467 248.3 13.7 246 8.8
2006-03-28 07:26:48 51°11.213 2°45.446 248.9 13.6 245 8.9
2006-03-28 07:26:54 51°11.203 2°45.412 249.4 13.6 246 8.8
2006-03-28 07:26:59 51°11.196 2°45.384 249.9 13.6 246 8.8
2006-03-28 07:27:04 51°11.189 2°45.357 250.4 13.6 247 8.9
2006-03-28 07:27:08 51°11.183 2°45.335 250.9 13.6 247 8.9
2006-03-28 07:27:14 51°11.174 2°45.301 251.2 13.7 248 8.9
2006-03-28 07:27:19 51°11.167 2°45.273 251.8 13.7 248 8.8
2006-03-28 07:27:24 51°11.16 2°45.245 251.3 13.7 247 8.9
2006-03-28 07:27:28 51°11.154 2°45.223 251.1 13.7 247 8.8
2006-03-28 07:27:34 51°11.145 2°45.191 250.8 13.6 246 8.8
2006-03-28 07:27:39 51°11.137 2°45.163 250 13.6 246 8.8
2006-03-28 07:27:44 51°11.129 2°45.135 249.5 13.7 246 8.8
2006-03-28 07:27:48 51°11.123 2°45.114 249.4 13.7 246 8.8
2006-03-28 07:27:54 51°11.114 2°45.08 249.7 13.7 246 8.9
2006-03-28 07:27:58 51°11.108 2°45.058 250.1 13.6 246 8.8
2006-03-28 07:28:04 51°11.099 2°45.025 250.4 13.7 247 8.8
2006-03-28 07:28:08 51°11.093 2°45.002 250.9 13.7 248 8.8
2006-03-28 07:28:14 51°11.085 2°44.969 251.3 13.6 248 8.8
2006-03-28 07:28:18 51°11.079 2°44.947 251.4 13.7 247 8.8
2006-03-28 07:28:23 51°11.072 2°44.919 251.3 13.7 247 8.8
2006-03-28 07:28:28 51°11.064 2°44.891 251.3 13.6 247 8.8
2006-03-28 07:28:34 51°11.055 2°44.858 250.8 13.7 247 8.8
2006-03-28 07:28:39 51°11.048 2°44.83 250.4 13.7 247 8.8
2006-03-28 07:28:44 51°11.04 2°44.802 250.5 13.7 247 8.8
2006-03-28 07:28:48 51°11.034 2°44.781 250.3 13.7 246 8.8
2006-03-28 07:28:54 51°11.025 2°44.748 250 13.7 246 8.8
2006-03-28 07:28:59 51°11.017 2°44.721 249.3 13.6 245 8.8
2006-03-28 07:29:04 51°11.009 2°44.693 248.6 13.7 245 8.7
2006-03-28 07:29:08 51°11.002 2°44.671 248.8 13.6 245 8.7
2006-03-28 07:29:14 51°10.993 2°44.638 248.8 13.6 246 8.8
2006-03-28 07:29:19 51°10.985 2°44.61 249 13.7 246 8.7
2006-03-28 07:29:24 51°10.978 2°44.583 249.8 13.6 246 8.7
2006-03-28 07:29:28 51°10.972 2°44.56 250.5 13.7 247 8.7
2006-03-28 07:29:34 51°10.963 2°44.527 250.8 13.7 247 8.7
2006-03-28 07:29:39 51°10.956 2°44.499 251.1 13.7 247 8.7
2006-03-28 07:29:44 51°10.949 2°44.471 251.3 13.7 247 8.8
2006-03-28 07:29:49 51°10.941 2°44.443 251.6 13.7 248 8.7
2006-03-28 07:29:54 51°10.934 2°44.415 251.6 13.7 248 8.7
2006-03-28 07:29:59 51°10.926 2°44.388 251.3 13.7 247 8.8
2006-03-28 07:30:04 51°10.919 2°44.36 250.9 13.7 247 8.7
2006-03-28 07:30:08 51°10.913 2°44.337 250.5 13.8 247 8.7
2006-03-28 07:30:14 51°10.904 2°44.304 250.5 13.8 246 8.7
2006-03-28 07:30:18 51°10.898 2°44.281 250.2 13.8 247 8.7
2006-03-28 07:30:24 51°10.888 2°44.248 250.2 13.8 246 8.7
2006-03-28 07:30:29 51°10.88 2°44.221 249.6 13.8 245 8.7
2006-03-28 07:30:34 51°10.872 2°44.193 249.3 13.8 246 8.7
2006-03-28 07:30:38 51°10.866 2°44.171 249.1 13.8 245 8.6
2006-03-28 07:30:44 51°10.857 2°44.137 248.9 13.9 246 8.7
2006-03-28 07:30:48 51°10.85 2°44.115 249.3 13.8 246 8.7
2006-03-28 07:30:54 51°10.842 2°44.081 249.8 13.8 246 8.7
2006-03-28 07:30:58 51°10.836 2°44.058 250.8 13.8 248 8.7
2006-03-28 07:31:03 51°10.829 2°44.03 251.7 13.8 248 8.6
2006-03-28 07:31:08 51°10.822 2°44.001 252.2 13.9 249 8.6
2006-03-28 07:31:14 51°10.814 2°43.968 252.7 13.8 249 8.7
2006-03-28 07:31:19 51°10.807 2°43.939 252.8 13.8 249 8.7
2006-03-28 07:31:24 51°10.8 2°43.911 252.5 13.8 248 8.6
2006-03-28 07:31:28 51°10.794 2°43.889 252.4 13.8 248 8.6
2006-03-28 07:31:34 51°10.785 2°43.855 251.8 13.8 247 8.6
2006-03-28 07:31:39 51°10.778 2°43.827 251.1 13.8 247 8.6
2006-03-28 07:31:44 51°10.77 2°43.799 251.1 13.7 247 8.6
2006-03-28 07:31:48 51°10.764 2°43.776 250.8 13.8 247 8.5
2006-03-28 07:31:54 51°10.755 2°43.744 250.4 13.7 247 8.6
2006-03-28 07:31:59 51°10.748 2°43.716 250.6 13.7 247 8.5
2006-03-28 07:32:04 51°10.74 2°43.688 250.3 13.7 247 8.5
2006-03-28 07:32:08 51°10.734 2°43.665 250.4 13.7 247 8.6
2006-03-28 07:32:14 51°10.726 2°43.632 250.7 13.7 248 8.6
2006-03-28 07:32:18 51°10.72 2°43.61 251.3 13.7 248 8.6
2006-03-28 07:32:24 51°10.712 2°43.576 251.8 13.6 248 8.5
2006-03-28 07:32:28 51°10.707 2°43.554 251.9 13.6 248 8.5
2006-03-28 07:32:34 51°10.698 2°43.52 252 13.6 248 8.5
2006-03-28 07:32:39 51°10.691 2°43.493 251.8 13.6 248 8.6
2006-03-28 07:32:44 51°10.683 2°43.465 251.2 13.6 248 8.5
2006-03-28 07:32:49 51°10.676 2°43.438 251 13.5 247 8.6
2006-03-28 07:32:54 51°10.668 2°43.41 249.9 13.6 246 8.5
2006-03-28 07:32:59 51°10.66 2°43.383 248.9 13.6 245 8.5
2006-03-28 07:33:04 51°10.651 2°43.356 248.2 13.6 245 8.5
2006-03-28 07:33:09 51°10.643 2°43.329 247.5 13.5 244 8.5
2006-03-28 07:33:14 51°10.635 2°43.303 246.9 13.6 243 8.5
2006-03-28 07:33:18 51°10.628 2°43.281 246.7 13.6 245 8.4
2006-03-28 07:33:24 51°10.618 2°43.248 247.5 13.6 244 8.4
2006-03-28 07:33:28 51°10.613 2°43.226 247.9 13.6 246 8.4
2006-03-28 07:33:34 51°10.604 2°43.193 249.5 13.6 247 8.4
2006-03-28 07:33:39 51°10.598 2°43.164 251.1 13.6 249 8.3
2006-03-28 07:33:44 51°10.591 2°43.136 252.5 13.5 250 8.4
2006-03-28 07:33:48 51°10.587 2°43.114 254 13.5 251 8.4
2006-03-28 07:33:54 51°10.579 2°43.08 255.1 13.5 251 8.4
2006-03-28 07:33:59 51°10.574 2°43.051 255.4 13.5 252 8.4
2006-03-28 07:34:04 51°10.568 2°43.023 255.8 13.5 252 8.4
2006-03-28 07:34:08 51°10.563 2°43 255.6 13.6 252 8.4
2006-03-28 07:34:12 51°10.558 2°42.978 255.6 13.6 252 8.4
2006-03-28 07:34:19 51°10.549 2°42.938 255.3 13.6 251 8.4
2006-03-28 07:34:24 51°10.543 2°42.909 254.9 13.6 251 8.4
2006-03-28 07:34:28 51°10.538 2°42.887 254.5 13.6 250 8.4
2006-03-28 07:34:34 51°10.53 2°42.853 253.6 13.6 248 8.4
2006-03-28 07:34:38 51°10.524 2°42.831 252.5 13.6 248 8.4
2006-03-28 07:34:43 51°10.516 2°42.803 251.6 13.6 247 8.3
2006-03-28 07:34:48 51°10.509 2°42.776 250.8 13.6 247 8.4
2006-03-28 07:34:54 51°10.5 2°42.742 250.4 13.6 247 8.4
2006-03-28 07:34:59 51°10.493 2°42.715 250.4 13.6 247 8.4
2006-03-28 07:35:04 51°10.485 2°42.687 250.2 13.6 247 8.4
2006-03-28 07:35:08 51°10.479 2°42.665 250.3 13.5 247 8.4
2006-03-28 07:35:14 51°10.471 2°42.632 250.4 13.6 248 8.4
2006-03-28 07:35:19 51°10.464 2°42.603 251.3 13.6 248 8.4
2006-03-28 07:35:24 51°10.458 2°42.575 252.5 13.6 250 8.4
2006-03-28 07:35:28 51°10.453 2°42.552 253.2 13.6 251 8.4
2006-03-28 07:35:34 51°10.446 2°42.518 254.6 13.6 251 8.4
2006-03-28 07:35:38 51°10.441 2°42.495 255.2 13.7 251 8.4
2006-03-28 07:35:44 51°10.434 2°42.461 255.6 13.6 252 8.4
2006-03-28 07:35:48 51°10.429 2°42.438 256 13.6 251 8.4
2006-03-28 07:35:54 51°10.422 2°42.404 255.7 13.6 252 8.3
2006-03-28 07:35:59 51°10.415 2°42.376 255.7 13.7 251 8.4
2006-03-28 07:36:04 51°10.409 2°42.347 255.2 13.7 250 8.4
2006-03-28 07:36:08 51°10.404 2°42.325 254.3 13.6 250 8.4
2006-03-28 07:36:14 51°10.395 2°42.291 254 13.6 250 8.4
2006-03-28 07:36:19 51°10.389 2°42.263 253.3 13.7 249 8.5
2006-03-28 07:36:24 51°10.382 2°42.235 252.5 13.7 249 8.5
2006-03-28 07:36:28 51°10.376 2°42.212 252.2 13.6 248 8.5
2006-03-28 07:36:34 51°10.368 2°42.178 252.2 13.6 248 8.5
2006-03-28 07:36:38 51°10.362 2°42.156 251.8 13.6 249 8.5
2006-03-28 07:36:44 51°10.354 2°42.123 252 13.6 249 8.6
2006-03-28 07:36:49 51°10.347 2°42.095 252.3 13.6 249 8.6
2006-03-28 07:36:54 51°10.341 2°42.066 252.8 13.6 249 8.5
2006-03-28 07:36:58 51°10.336 2°42.044 253.4 13.6 251 8.5
2006-03-28 07:37:04 51°10.329 2°42.009 254 13.6 250 8.6
2006-03-28 07:37:08 51°10.324 2°41.987 254.5 13.5 251 8.6
2006-03-28 07:37:14 51°10.316 2°41.952 254.7 13.6 251 8.6
2006-03-28 07:37:18 51°10.312 2°41.93 254.7 13.6 251 8.6
2006-03-28 07:37:24 51°10.304 2°41.896 254.8 13.6 251 8.6
2006-03-28 07:37:28 51°10.299 2°41.874 254.1 13.6 250 8.7
2006-03-28 07:37:34 51°10.291 2°41.84 253.6 13.6 250 8.7
2006-03-28 07:37:38 51°10.286 2°41.817 253.2 13.6 250 8.7
2006-03-28 07:37:44 51°10.278 2°41.784 253.3 13.6 250 8.7
2006-03-28 07:37:48 51°10.272 2°41.761 253.2 13.6 250 8.7
2006-03-28 07:37:54 51°10.264 2°41.728 252.6 13.6 249 8.7
2006-03-28 07:37:59 51°10.257 2°41.7 251.8 13.6 248 8.7
2006-03-28 07:38:04 51°10.25 2°41.672 251.1 13.6 248 8.7
2006-03-28 07:38:09 51°10.242 2°41.645 250.8 13.6 247 8.7
2006-03-28 07:38:14 51°10.235 2°41.617 250.4 13.6 247 8.7
2006-03-28 07:38:19 51°10.228 2°41.589 249.8 13.7 247 8.7
2006-03-28 07:38:24 51°10.221 2°41.561 250.2 13.6 247 8.7
2006-03-28 07:38:28 51°10.215 2°41.539 250.9 13.6 249 8.7
2006-03-28 07:38:34 51°10.207 2°41.505 251.9 13.6 249 8.7
2006-03-28 07:38:39 51°10.201 2°41.476 252.5 13.6 249 8.7
2006-03-28 07:38:44 51°10.194 2°41.448 253.1 13.7 250 8.8
2006-03-28 07:38:48 51°10.19 2°41.426 253.6 13.6 251 8.8
2006-03-28 07:38:54 51°10.182 2°41.391 254.3 13.6 251 8.8
2006-03-28 07:38:59 51°10.176 2°41.363 254.6 13.6 252 8.8
2006-03-28 07:39:04 51°10.17 2°41.334 254.7 13.6 252 8.9
2006-03-28 07:39:08 51°10.166 2°41.312 255.1 13.7 252 8.9
2006-03-28 07:39:14 51°10.158 2°41.277 255.1 13.6 251 8.8
2006-03-28 07:39:18 51°10.154 2°41.254 255 13.6 252 8.9
2006-03-28 07:39:24 51°10.146 2°41.22 255.2 13.6 251 8.9
2006-03-28 07:39:28 51°10.141 2°41.197 254.7 13.6 251 8.9
2006-03-28 07:39:34 51°10.133 2°41.163 254 13.6 250 8.9
2006-03-28 07:39:39 51°10.127 2°41.136 253.5 13.7 250 9
2006-03-28 07:39:44 51°10.121 2°41.107 253.3 13.6 250 9
2006-03-28 07:39:48 51°10.115 2°41.085 252.9 13.6 249 9
2006-03-28 07:39:54 51°10.107 2°41.051 252.5 13.6 250 9.1
2006-03-28 07:39:58 51°10.101 2°41.029 252.4 13.6 249 9
2006-03-28 07:40:04 51°10.093 2°40.995 251.9 13.6 249 9
2006-03-28 07:40:08 51°10.088 2°40.973 251.9 13.6 249 9.1
2006-03-28 07:40:14 51°10.08 2°40.939 252.1 13.6 250 9.1
2006-03-28 07:40:19 51°10.074 2°40.91 252.5 13.6 250 9.1
2006-03-28 07:40:24 51°10.068 2°40.882 253.1 13.6 251 9.1
2006-03-28 07:40:28 51°10.063 2°40.86 254 13.5 251 9.1
2006-03-28 07:40:34 51°10.056 2°40.825 254.7 13.5 252 9.1
2006-03-28 07:40:39 51°10.05 2°40.797 255.1 13.5 252 9.1
2006-03-28 07:40:44 51°10.044 2°40.768 255.1 13.5 252 9.1
2006-03-28 07:40:48 51°10.039 2°40.746 255 13.5 251 9.1
2006-03-28 07:40:54 51°10.032 2°40.712 254.5 13.5 251 9.2
2006-03-28 07:40:59 51°10.025 2°40.685 253.7 13.5 249 9.2
2006-03-28 07:41:04 51°10.019 2°40.656 252.9 13.5 249 9.1
2006-03-28 07:41:08 51°10.014 2°40.634 252.2 13.5 250 9.3
2006-03-28 07:41:14 51°10.006 2°40.601 252.1 13.5 250 9.2
2006-03-28 07:41:18 51°10.001 2°40.579 252.4 13.5 250 9.2
2006-03-28 07:41:24 51°9.993 2°40.545 252.8 13.4 250 9.3
2006-03-28 07:41:28 51°9.988 2°40.522 252.9 13.5 250 9.3
2006-03-28 07:41:34 51°9.98 2°40.488 253.1 13.5 250 9.3
2006-03-28 07:41:39 51°9.974 2°40.46 253 13.5 250 9.3
2006-03-28 07:41:43 51°9.969 2°40.438 253 13.5 250 9.3
2006-03-28 07:41:48 51°9.962 2°40.41 253 13.5 250 9.3
2006-03-28 07:41:54 51°9.954 2°40.377 252.7 13.5 250 9.3
2006-03-28 07:41:58 51°9.949 2°40.354 252.7 13.5 250 9.3
2006-03-28 07:42:04 51°9.942 2°40.321 252.7 13.5 250 9.4
2006-03-28 07:42:08 51°9.937 2°40.298 253.2 13.5 251 9.4
2006-03-28 07:42:14 51°9.929 2°40.264 253.3 13.6 250 9.4
2006-03-28 07:42:19 51°9.923 2°40.236 253.3 13.5 251 9.4
2006-03-28 07:42:24 51°9.917 2°40.208 253.3 13.5 250 9.4
2006-03-28 07:42:28 51°9.911 2°40.185 253.4 13.5 250 9.4
2006-03-28 07:42:34 51°9.904 2°40.152 253.2 13.5 250 9.4
2006-03-28 07:42:39 51°9.897 2°40.125 252.9 13.5 250 9.5
2006-03-28 07:42:44 51°9.891 2°40.097 252.6 13.5 250 9.5
2006-03-28 07:42:48 51°9.885 2°40.074 252.4 13.6 249 9.4
2006-03-28 07:42:54 51°9.878 2°40.04 252.3 13.5 250 9.4
2006-03-28 07:42:59 51°9.871 2°40.012 252.5 13.5 251 9.5
2006-03-28 07:43:04 51°9.865 2°39.984 253.1 13.5 251 9.5
2006-03-28 07:43:08 51°9.86 2°39.961 253.3 13.5 251 9.5
2006-03-28 07:43:14 51°9.853 2°39.927 253.7 13.6 251 9.5
2006-03-28 07:43:18 51°9.848 2°39.905 254.1 13.6 252 9.5
2006-03-28 07:43:24 51°9.841 2°39.871 254.3 13.6 251 9.5
2006-03-28 07:43:29 51°9.835 2°39.843 254.1 13.6 251 9.5
2006-03-28 07:43:34 51°9.828 2°39.814 253.6 13.6 251 9.5
2006-03-28 07:43:38 51°9.823 2°39.792 253.3 13.5 250 9.5
2006-03-28 07:43:44 51°9.815 2°39.759 252.8 13.6 249 9.5
2006-03-28 07:43:48 51°9.81 2°39.736 252.4 13.6 250 9.5
2006-03-28 07:43:54 51°9.802 2°39.702 252.3 13.6 249 9.5
2006-03-28 07:43:59 51°9.795 2°39.674 252.1 13.6 249 9.5
2006-03-28 07:44:04 51°9.789 2°39.646 251.9 13.6 249 9.6
2006-03-28 07:44:08 51°9.783 2°39.624 252.2 13.6 249 9.5
2006-03-28 07:44:14 51°9.776 2°39.59 252.5 13.6 250 9.6
2006-03-28 07:44:18 51°9.77 2°39.567 252.5 13.6 250 9.6
2006-03-28 07:44:24 51°9.763 2°39.534 252.6 13.6 251 9.6
2006-03-28 07:44:28 51°9.758 2°39.511 253.2 13.6 251 9.5
2006-03-28 07:44:34 51°9.751 2°39.477 253.9 13.5 252 9.6
2006-03-28 07:44:39 51°9.745 2°39.448 254.3 13.6 251 9.6
2006-03-28 07:44:44 51°9.739 2°39.42 254.4 13.6 251 9.6
2006-03-28 07:44:48 51°9.734 2°39.398 254.6 13.6 251 9.6
2006-03-28 07:44:54 51°9.726 2°39.364 254 13.5 250 9.7
2006-03-28 07:44:59 51°9.719 2°39.336 253.3 13.5 249 9.7
2006-03-28 07:45:04 51°9.713 2°39.309 252.5 13.5 250 9.8
2006-03-28 07:45:08 51°9.707 2°39.286 252.1 13.5 249 9.8
2006-03-28 07:45:13 51°9.701 2°39.258 252.1 13.5 249 9.7
2006-03-28 07:45:19 51°9.693 2°39.224 251.9 13.5 249 9.7
2006-03-28 07:45:24 51°9.686 2°39.197 252.2 13.5 250 9.8
2006-03-28 07:45:28 51°9.681 2°39.174 252.6 13.6 250 9.8
2006-03-28 07:45:34 51°9.674 2°39.14 253 13.6 251 9.8
2006-03-28 07:45:39 51°9.668 2°39.112 253.5 13.6 251 9.8
2006-03-28 07:45:44 51°9.662 2°39.083 253.9 13.6 251 9.8
2006-03-28 07:45:48 51°9.657 2°39.061 254.2 13.5 251 9.9
2006-03-28 07:45:54 51°9.649 2°39.027 254 13.5 251 9.9
2006-03-28 07:45:58 51°9.644 2°39.005 253.6 13.4 251 9.9
2006-03-28 07:46:04 51°9.637 2°38.971 253.5 13.5 250 10
2006-03-28 07:46:08 51°9.632 2°38.949 253.7 13.5 251 10
2006-03-28 07:46:14 51°9.625 2°38.915 253.9 13.5 251 10.1
2006-03-28 07:46:19 51°9.618 2°38.887 253.9 13.4 251 9.9
2006-03-28 07:46:24 51°9.612 2°38.86 253.5 13.4 251 10.1
2006-03-28 07:46:28 51°9.607 2°38.837 253.3 13.4 250 10
2006-03-28 07:46:34 51°9.599 2°38.805 253 13.4 250 10.1
2006-03-28 07:46:39 51°9.593 2°38.776 252.5 13.3 249 10.1
2006-03-28 07:46:44 51°9.587 2°38.749 252.6 13.3 249 10.1
2006-03-28 07:46:49 51°9.581 2°38.721 252.5 13.4 251 10.1
2006-03-28 07:46:54 51°9.574 2°38.694 253 13.3 251 10.2
2006-03-28 07:46:59 51°9.569 2°38.666 253.3 13.4 251 10.1
2006-03-28 07:47:04 51°9.562 2°38.638 253.3 13.3 251 10.2
2006-03-28 07:47:08 51°9.557 2°38.616 253.7 13.4 250 10.2
2006-03-28 07:47:14 51°9.55 2°38.582 253.3 13.3 251 10.2
2006-03-28 07:47:19 51°9.544 2°38.555 252.9 13.3 250 10.3
2006-03-28 07:47:24 51°9.537 2°38.527 252.8 13.3 251 10.3
2006-03-28 07:47:28 51°9.532 2°38.505 252.7 13.3 250 10.3
2006-03-28 07:47:34 51°9.524 2°38.472 252.3 13.4 250 10.2
2006-03-28 07:47:39 51°9.518 2°38.444 252.2 13.4 250 10.2
2006-03-28 07:47:44 51°9.512 2°38.416 252.1 13.4 250 10.3
2006-03-28 07:47:48 51°9.507 2°38.394 252.3 13.4 251 10.3
2006-03-28 07:47:54 51°9.499 2°38.36 252.8 13.4 250 10.3
2006-03-28 07:47:59 51°9.493 2°38.334 252.5 13.4 250 10.3
2006-03-28 07:48:04 51°9.486 2°38.306 252.2 13.4 250 10.2
2006-03-28 07:48:08 51°9.481 2°38.283 251.8 13.4 250 10.3
2006-03-28 07:48:14 51°9.473 2°38.25 252.3 13.4 250 10.2
2006-03-28 07:48:18 51°9.469 2°38.228 252.4 13.5 251 10.3
2006-03-28 07:48:24 51°9.461 2°38.194 253 13.4 250 10.3
2006-03-28 07:48:28 51°9.456 2°38.172 253.2 13.4 252 10.3
2006-03-28 07:48:34 51°9.449 2°38.138 253.4 13.4 251 10.3
2006-03-28 07:48:39 51°9.443 2°38.11 253.9 13.4 251 10.3
2006-03-28 07:48:44 51°9.437 2°38.082 253.7 13.3 251 10.3
2006-03-28 07:48:48 51°9.432 2°38.06 253.4 13.4 251 10.3
2006-03-28 07:48:54 51°9.425 2°38.027 253 13.4 250 10.3
2006-03-28 07:48:59 51°9.418 2°37.999 252.6 13.4 250 10.3
2006-03-28 07:49:04 51°9.412 2°37.971 252.4 13.4 250 10.3
2006-03-28 07:49:08 51°9.407 2°37.949 252.4 13.4 250 10.3
2006-03-28 07:49:14 51°9.399 2°37.916 252.3 13.4 250 10.3
2006-03-28 07:49:18 51°9.394 2°37.894 252.4 13.3 250 10.3
2006-03-28 07:49:24 51°9.387 2°37.861 252.6 13.3 250 10.4
2006-03-28 07:49:28 51°9.382 2°37.838 252.5 13.4 250 10.4
2006-03-28 07:49:34 51°9.374 2°37.805 252.5 13.4 250 10.4
2006-03-28 07:49:39 51°9.368 2°37.778 252.5 13.4 250 10.3
2006-03-28 07:49:44 51°9.361 2°37.749 252.5 13.3 250 10.3
2006-03-28 07:49:48 51°9.356 2°37.727 252.4 13.4 250 10.4
2006-03-28 07:49:54 51°9.349 2°37.694 252.7 13.4 251 10.4
2006-03-28 07:49:59 51°9.343 2°37.667 253.2 13.4 251 10.4
2006-03-28 07:50:04 51°9.337 2°37.638 253.1 13.4 250 10.4
2006-03-28 07:50:08 51°9.332 2°37.616 253.2 13.4 250 10.4
2006-03-28 07:50:14 51°9.325 2°37.583 253.2 13.4 251 10.5
2006-03-28 07:50:18 51°9.32 2°37.56 253.3 13.4 251 10.5
2006-03-28 07:50:24 51°9.312 2°37.526 253.3 13.4 251 10.5
2006-03-28 07:50:29 51°9.306 2°37.499 253.3 13.5 251 10.5
2006-03-28 07:50:34 51°9.3 2°37.471 253.4 13.4 251 10.6
2006-03-28 07:50:38 51°9.295 2°37.448 253.5 13.5 251 10.5
2006-03-28 07:50:44 51°9.288 2°37.415 253.7 13.5 251 10.6
2006-03-28 07:50:48 51°9.283 2°37.392 253.7 13.4 251 10.6
2006-03-28 07:50:54 51°9.276 2°37.359 253.9 13.4 251 10.6
2006-03-28 07:50:58 51°9.271 2°37.336 253.8 13.5 251 10.7
2006-03-28 07:51:03 51°9.265 2°37.308 253.8 13.4 251 10.7
2006-03-28 07:51:08 51°9.259 2°37.28 253.6 13.4 251 10.7
2006-03-28 07:51:14 51°9.251 2°37.246 253.4 13.4 251 10.7
2006-03-28 07:51:19 51°9.245 2°37.219 253.3 13.4 251 10.7
2006-03-28 07:51:24 51°9.239 2°37.191 253.1 13.4 250 10.8
2006-03-28 07:51:28 51°9.234 2°37.169 252.7 13.4 250 10.8
2006-03-28 07:51:34 51°9.226 2°37.135 252.6 13.5 250 10.9
2006-03-28 07:51:39 51°9.22 2°37.107 252.6 13.4 250 10.8
2006-03-28 07:51:44 51°9.213 2°37.079 252.5 13.5 250 10.9
2006-03-28 07:51:48 51°9.208 2°37.057 252.8 13.5 250 11
2006-03-28 07:51:54 51°9.201 2°37.024 252.9 13.4 251 10.8
2006-03-28 07:51:58 51°9.196 2°37.001 253.2 13.4 252 10.9
2006-03-28 07:52:04 51°9.189 2°36.968 254 13.4 252 10.9
2006-03-28 07:52:08 51°9.184 2°36.945 254 13.5 252 11
2006-03-28 07:52:14 51°9.177 2°36.911 254.6 13.4 252 11.1
2006-03-28 07:52:19 51°9.172 2°36.884 254.7 13.4 252 11.1
2006-03-28 07:52:24 51°9.165 2°36.855 254.4 13.4 252 11.1
2006-03-28 07:52:28 51°9.161 2°36.833 254.1 13.4 251 11.1
2006-03-28 07:52:34 51°9.153 2°36.799 253.7 13.5 251 11.1
2006-03-28 07:52:39 51°9.147 2°36.771 253.6 13.5 251 11.1
2006-03-28 07:52:44 51°9.141 2°36.743 253.2 13.5 251 11.2
2006-03-28 07:52:48 51°9.135 2°36.721 252.7 13.5 250 11.3
2006-03-28 07:52:54 51°9.128 2°36.688 252.5 13.5 249 11.3
2006-03-28 07:52:58 51°9.123 2°36.665 252.2 13.4 250 11.2
2006-03-28 07:53:04 51°9.115 2°36.632 252.5 13.4 250 11.2
2006-03-28 07:53:08 51°9.11 2°36.609 252.8 13.5 250 11.3
2006-03-28 07:53:14 51°9.102 2°36.576 253.1 13.5 250 11.4
2006-03-28 07:53:19 51°9.096 2°36.548 253.3 13.5 251 11.4
2006-03-28 07:53:24 51°9.09 2°36.519 253.3 13.6 250 11.4
2006-03-28 07:53:28 51°9.085 2°36.497 253.4 13.6 251 11.4
2006-03-28 07:53:34 51°9.078 2°36.462 253.8 13.5 251 11.5
2006-03-28 07:53:39 51°9.072 2°36.434 254 13.6 251 11.6
2006-03-28 07:53:44 51°9.066 2°36.405 254.6 13.6 252 11.6
2006-03-28 07:53:48 51°9.062 2°36.383 254.8 13.6 252 11.7
2006-03-28 07:53:54 51°9.055 2°36.348 254.8 13.6 252 11.8
2006-03-28 07:53:59 51°9.048 2°36.32 254.6 13.6 251 11.9
2006-03-28 07:54:04 51°9.042 2°36.291 254 13.6 251 12
2006-03-28 07:54:08 51°9.037 2°36.267 253.8 13.7 250 12
2006-03-28 07:54:14 51°9.03 2°36.233 253.1 13.7 250 12.2
2006-03-28 07:54:19 51°9.023 2°36.205 253.1 13.6 251 12.2
2006-03-28 07:54:24 51°9.017 2°36.177 253.1 13.7 250 12.3
2006-03-28 07:54:28 51°9.012 2°36.154 253 13.7 250 12.3
2006-03-28 07:54:34 51°9.004 2°36.12 253 13.7 250 12.4
2006-03-28 07:54:39 51°8.997 2°36.092 253 13.6 251 12.5
2006-03-28 07:54:44 51°8.991 2°36.064 252.9 13.7 251 12.5
2006-03-28 07:54:48 51°8.986 2°36.041 252.9 13.7 250 12.6
2006-03-28 07:54:54 51°8.978 2°36.007 252.5 13.7 250 12.6
2006-03-28 07:54:58 51°8.973 2°35.984 252.8 13.7 250 12.7
2006-03-28 07:55:04 51°8.966 2°35.949 253.3 13.7 252 12.7
2006-03-28 07:55:08 51°8.961 2°35.927 253.7 13.7 251 12.9
2006-03-28 07:55:14 51°8.953 2°35.893 253.9 13.6 251 12.9
2006-03-28 07:55:18 51°8.948 2°35.87 253.8 13.7 250 13
2006-03-28 07:55:24 51°8.94 2°35.837 252.6 13.7 249 13.1
2006-03-28 07:55:28 51°8.934 2°35.814 251.7 13.7 249 13.2
2006-03-28 07:55:34 51°8.926 2°35.781 251 13.7 248 13.2
2006-03-28 07:55:39 51°8.919 2°35.753 250.7 13.6 248 13.2
2006-03-28 07:55:44 51°8.911 2°35.725 249.9 13.6 247 13.3
2006-03-28 07:55:49 51°8.904 2°35.697 249.6 13.7 247 13.2
2006-03-28 07:55:54 51°8.897 2°35.669 249.4 13.6 247 13.4
2006-03-28 07:55:59 51°8.889 2°35.642 249.8 13.7 248 13.5
2006-03-28 07:56:04 51°8.882 2°35.614 250.1 13.7 248 13.5
2006-03-28 07:56:08 51°8.877 2°35.592 250.2 13.6 248 13.6
2006-03-28 07:56:14 51°8.868 2°35.558 250.4 13.5 248 13.5
2006-03-28 07:56:18 51°8.862 2°35.537 250.4 13.5 248 13.5
2006-03-28 07:56:24 51°8.853 2°35.503 250.3 13.5 248 13.6
2006-03-28 07:56:28 51°8.848 2°35.482 250.2 13.6 247 13.8
2006-03-28 07:56:33 51°8.84 2°35.454 250.1 13.6 247 13.7
2006-03-28 07:56:39 51°8.832 2°35.421 249.7 13.6 248 13.8
2006-03-28 07:56:44 51°8.824 2°35.393 250 13.7 247 13.8
2006-03-28 07:56:48 51°8.819 2°35.371 249.9 13.6 248 14
2006-03-28 07:56:52 51°8.813 2°35.348 250 13.6 248 14
2006-03-28 07:56:59 51°8.803 2°35.31 250 13.6 248 14.2
2006-03-28 07:57:04 51°8.796 2°35.281 250.4 13.6 248 14.1
2006-03-28 07:57:08 51°8.79 2°35.259 250.4 13.6 248 14.1
2006-03-28 07:57:14 51°8.782 2°35.226 250.4 13.6 248 14.2
2006-03-28 07:57:18 51°8.776 2°35.204 250.4 13.6 248 14.2
2006-03-28 07:57:24 51°8.767 2°35.17 250.7 13.6 248 14.3
2006-03-28 07:57:28 51°8.762 2°35.148 250.2 13.6 248 14.3
2006-03-28 07:57:34 51°8.753 2°35.115 249.8 13.6 247 14.4
2006-03-28 07:57:38 51°8.747 2°35.093 249.8 13.7 247 14.5
2006-03-28 07:57:44 51°8.738 2°35.059 249.5 13.7 247 14.5
2006-03-28 07:57:49 51°8.73 2°35.031 249.7 13.7 247 14.6
2006-03-28 07:57:54 51°8.724 2°35.003 249.8 13.8 248 14.5
2006-03-28 07:57:59 51°8.716 2°34.976 250.3 13.7 248 14.8
2006-03-28 07:58:04 51°8.709 2°34.947 250.8 13.7 248 14.8
2006-03-28 07:58:09 51°8.702 2°34.919 250.9 13.7 248 14.9
2006-03-28 07:58:14 51°8.695 2°34.891 250.9 13.7 248 15
2006-03-28 07:58:18 51°8.689 2°34.869 250.5 13.6 247 15.1
2006-03-28 07:58:24 51°8.68 2°34.835 250.4 13.7 247 15
2006-03-28 07:58:28 51°8.674 2°34.814 249.5 13.7 247 15.2
2006-03-28 07:58:34 51°8.665 2°34.781 249.5 13.7 247 15.2
2006-03-28 07:58:39 51°8.657 2°34.753 249.2 13.7 247 15.3
2006-03-28 07:58:44 51°8.65 2°34.725 249.4 13.7 246 15.5
2006-03-28 07:58:48 51°8.644 2°34.703 249.6 13.7 247 15.6
2006-03-28 07:58:53 51°8.637 2°34.674 250.1 13.7 248 15.5
2006-03-28 07:58:59 51°8.628 2°34.641 250.3 13.8 248 15.7
2006-03-28 07:59:03 51°8.622 2°34.619 250.7 13.7 248 15.7
2006-03-28 07:59:08 51°8.615 2°34.59 250.7 13.8 248 15.7
2006-03-28 07:59:14 51°8.607 2°34.557 251.1 13.7 248 15.8
2006-03-28 07:59:18 51°8.601 2°34.535 251.2 13.7 248 15.8
2006-03-28 07:59:24 51°8.592 2°34.501 251 13.7 248 15.9
2006-03-28 07:59:29 51°8.585 2°34.473 250.4 13.7 248 15.9
2006-03-28 07:59:34 51°8.577 2°34.445 250 13.7 246 15.9
2006-03-28 07:59:38 51°8.571 2°34.422 249.3 13.8 247 16.1
2006-03-28 07:59:44 51°8.562 2°34.389 249.6 13.6 246 16
2006-03-28 07:59:48 51°8.556 2°34.367 249.6 13.7 247 16.1
2006-03-28 07:59:54 51°8.547 2°34.335 249.5 13.7 247 16.2
2006-03-28 07:59:58 51°8.541 2°34.312 249.5 13.7 247 16.1
2006-03-28 08:00:04 51°8.532 2°34.279 249.8 13.7 247 16.3
2006-03-28 08:00:09 51°8.524 2°34.251 249.5 13.7 247 16.3
2006-03-28 08:00:14 51°8.517 2°34.223 249.7 13.6 247 16.3
2006-03-28 08:00:19 51°8.51 2°34.195 249.9 13.7 247 16.4
2006-03-28 08:00:24 51°8.502 2°34.168 250 13.7 248 16.3
2006-03-28 08:00:28 51°8.497 2°34.145 250.4 13.7 248 16.4
2006-03-28 08:00:34 51°8.487 2°34.112 250.5 13.6 247 16.3
2006-03-28 08:00:39 51°8.48 2°34.084 249.7 13.7 246 16.3
2006-03-28 08:00:44 51°8.472 2°34.057 248.9 13.7 246 16.4
2006-03-28 08:00:49 51°8.464 2°34.03 248.2 13.7 246 16.3
2006-03-28 08:00:54 51°8.456 2°34.002 247.3 13.6 244 16.3
2006-03-28 08:00:59 51°8.447 2°33.975 247.1 13.7 244 16.2
2006-03-28 08:01:04 51°8.439 2°33.949 246.7 13.7 244 16.3
2006-03-28 08:01:09 51°8.43 2°33.921 246.4 13.7 244 16.3
2006-03-28 08:01:14 51°8.422 2°33.895 246.2 13.7 244 16.4
2006-03-28 08:01:19 51°8.414 2°33.868 246.3 13.6 244 16.4
2006-03-28 08:01:24 51°8.406 2°33.84 246.4 13.7 245 16.3
2006-03-28 08:01:28 51°8.399 2°33.818 246.9 13.7 245 16.3
2006-03-28 08:01:34 51°8.39 2°33.786 247.5 13.6 245 16.3
2006-03-28 08:01:39 51°8.382 2°33.758 247.6 13.6 245 16.2
2006-03-28 08:01:44 51°8.374 2°33.732 247.6 13.7 245 16.2
2006-03-28 08:01:49 51°8.366 2°33.705 247.4 13.4 244 16.4
2006-03-28 08:01:54 51°8.357 2°33.678 247.2 13.4 244 16.1
2006-03-28 08:01:58 51°8.35 2°33.657 246 13.5 243 16.3
2006-03-28 08:02:04 51°8.34 2°33.626 245.7 13.5 243 16.3
2006-03-28 08:02:08 51°8.334 2°33.604 245.6 13.5 243 16.4
2006-03-28 08:02:14 51°8.323 2°33.573 245.5 13.4 242 16.4
2006-03-28 08:02:19 51°8.315 2°33.546 245.3 13.5 242 16.3
2006-03-28 08:02:24 51°8.306 2°33.521 244.8 13.5 242 16.3
2006-03-28 08:02:28 51°8.298 2°33.5 244.4 13.4 241 16.2
2006-03-28 08:02:34 51°8.287 2°33.469 243.6 13.4 241 16.3
2006-03-28 08:02:38 51°8.28 2°33.448 243.1 13.4 241 16.2
2006-03-28 08:02:44 51°8.269 2°33.417 242.8 13.4 241 16.1
2006-03-28 08:02:48 51°8.262 2°33.397 242.5 13.4 241 16.2
2006-03-28 08:02:54 51°8.25 2°33.366 242.4 13.4 240 16.1
2006-03-28 08:02:59 51°8.241 2°33.34 242.4 13.4 240 16.1
2006-03-28 08:03:04 51°8.232 2°33.315 242.5 13.4 241 16.2
2006-03-28 08:03:08 51°8.225 2°33.293 242.4 13.5 241 16.2
2006-03-28 08:03:14 51°8.214 2°33.263 243 13.5 241 16.2
2006-03-28 08:03:19 51°8.205 2°33.237 243.2 13.4 242 16.2
2006-03-28 08:03:24 51°8.196 2°33.21 243.3 13.5 241 16.1
2006-03-28 08:03:28 51°8.189 2°33.189 243.4 13.5 241 16.2
2006-03-28 08:03:34 51°8.178 2°33.159 243.3 13.4 241 16.1
2006-03-28 08:03:39 51°8.169 2°33.133 243.4 13.4 241 16.1
2006-03-28 08:03:44 51°8.16 2°33.108 243.3 13.4 241 16.2
2006-03-28 08:03:49 51°8.151 2°33.082 243.2 13.4 241 16.1
2006-03-28 08:03:54 51°8.142 2°33.056 242.8 13.4 240 16
2006-03-28 08:03:58 51°8.135 2°33.036 242.5 13.4 240 15.9
2006-03-28 08:04:04 51°8.124 2°33.004 242.8 13.5 241 16
2006-03-28 08:04:09 51°8.116 2°32.978 243.8 13.5 241 15.9
2006-03-28 08:04:14 51°8.109 2°32.951 245.5 13.4 244 16
2006-03-28 08:04:18 51°8.104 2°32.929 248.6 13.2 251 15.8
2006-03-28 08:04:24 51°8.098 2°32.894 253.1 13.1 254 15.7
2006-03-28 08:04:28 51°8.095 2°32.871 256.7 13.2 257 15.6